Redmond, Oregon
Current Conditions -  °F | °C
As of 3:56 PM on Friday 19 Dec 2014 (Local Time) from KRDM Reporting Station
Broken Clouds Broken Clouds  
Wind Chill: 39°   Ceiling: 7500
Heat Index: 42°   Visibility: 10mi
Dew Point: 30°   Wind: 5mph
Humidity: 62%   Direction: 360°N
Pressure: 29.99"   Gusts: NA
Location:  44.27°N, 121.17°W
Report Text: KRDM 192356Z 36004KT 10SM BKN075 06/M01 A2999 RMK AO2 SLP160 60000 T00561011 10083 20050 53004
Loading
Personal Weather Stations






























Interactive Weather Map New forecast layout! Learn more

10-Day Weather Forecast

Advertisements
Track Severe Weather on mobile